createdAt,value
2022-09-06T00:01:39.947Z,100.00
2022-09-06T00:04:08.122Z,100.00
2022-09-06T00:06:36.825Z,100.00
2022-09-06T00:09:03.717Z,100.00
2022-09-06T00:11:30.393Z,100.00
2022-09-06T00:13:57.128Z,100.00
2022-09-06T00:16:28.413Z,100.00
2022-09-06T00:18:57.236Z,100.00
2022-09-06T00:21:26.366Z,100.00
2022-09-06T00:23:53.418Z,100.00
2022-09-06T00:26:20.709Z,100.00
2022-09-06T00:28:47.707Z,100.00
2022-09-06T00:31:14.416Z,100.00
2022-09-06T00:33:41.469Z,100.00
2022-09-06T00:36:10.881Z,100.00
2022-09-06T00:38:38.555Z,100.00
2022-09-06T00:41:07.097Z,100.00
2022-09-06T00:43:33.967Z,100.00
2022-09-06T00:46:01.445Z,100.00
2022-09-06T00:48:28.458Z,100.00
2022-09-06T00:50:59.199Z,100.00
2022-09-06T00:53:26.185Z,100.00
2022-09-06T00:55:53.833Z,100.00
2022-09-06T00:58:21.001Z,100.00
2022-09-06T01:00:47.758Z,100.00
2022-09-06T01:03:14.727Z,100.00
2022-09-06T01:05:54.540Z,100.00
2022-09-06T01:08:40.360Z,100.00
2022-09-06T01:11:22.295Z,100.00
2022-09-06T01:13:59.161Z,100.00
2022-09-06T01:16:31.827Z,100.00
2022-09-06T01:19:10.467Z,100.00
2022-09-06T01:22:21.967Z,100.00
2022-09-06T01:24:48.660Z,100.00
2022-09-06T01:27:53.284Z,100.00
2022-09-06T01:30:20.586Z,100.00
2022-09-06T01:32:56.539Z,100.00
2022-09-06T01:35:38.909Z,100.00
2022-09-06T01:38:06.879Z,100.00
2022-09-06T01:40:36.560Z,100.00
2022-09-06T01:43:11.071Z,100.00
2022-09-06T01:46:14.156Z,100.00
2022-09-06T01:49:22.302Z,100.00
2022-09-06T01:52:08.447Z,100.00
2022-09-06T01:55:05.498Z,100.00
2022-09-06T01:57:40.910Z,100.00
2022-09-06T02:00:09.344Z,100.00
2022-09-06T02:02:50.729Z,100.00
2022-09-06T02:05:27.374Z,100.00
2022-09-06T02:07:58.350Z,100.00
2022-09-06T02:10:34.923Z,100.00
2022-09-06T02:13:02.627Z,100.00
2022-09-06T02:15:33.376Z,100.00
2022-09-06T02:18:05.012Z,100.00
2022-09-06T02:20:34.197Z,100.00
2022-09-06T02:23:05.052Z,100.00
2022-09-06T02:25:40.422Z,100.00
2022-09-06T02:28:08.180Z,100.00
2022-09-06T02:30:39.110Z,100.00
2022-09-06T02:33:14.401Z,100.00
2022-09-06T02:35:49.767Z,100.00
2022-09-06T02:38:17.656Z,100.00
2022-09-06T02:40:45.112Z,100.00
2022-09-06T02:43:11.863Z,100.00
2022-09-06T02:45:38.682Z,100.00
2022-09-06T02:48:05.529Z,100.00
2022-09-06T02:50:32.384Z,100.00
2022-09-06T02:53:06.383Z,100.00
2022-09-06T02:55:33.514Z,100.00
2022-09-06T02:58:00.230Z,100.00
2022-09-06T03:00:28.201Z,100.00
2022-09-06T03:02:55.918Z,100.00
2022-09-06T03:05:24.078Z,100.00
2022-09-06T03:07:51.300Z,100.00
2022-09-06T03:10:18.438Z,100.00
2022-09-06T03:12:45.599Z,100.00
2022-09-06T03:15:14.216Z,100.00
2022-09-06T03:17:45.676Z,100.00
2022-09-06T03:20:16.264Z,100.00
2022-09-06T03:22:43.197Z,100.00
2022-09-06T03:25:10.948Z,100.00
2022-09-06T03:27:37.713Z,100.00
2022-09-06T03:30:06.210Z,100.00
2022-09-06T03:32:33.008Z,100.00
2022-09-06T03:34:59.868Z,100.00
2022-09-06T03:37:26.918Z,100.00
2022-09-06T03:39:53.742Z,100.00
2022-09-06T03:42:20.598Z,100.00
2022-09-06T03:44:47.446Z,100.00
2022-09-06T03:47:19.299Z,100.00
2022-09-06T03:49:47.111Z,100.00
2022-09-06T03:52:14.163Z,100.00
2022-09-06T03:54:40.948Z,100.00
2022-09-06T03:57:07.692Z,100.00
2022-09-06T03:59:34.722Z,100.00
2022-09-06T04:02:01.711Z,100.00
2022-09-06T04:04:28.643Z,100.00
2022-09-06T04:06:55.408Z,100.00
2022-09-06T04:09:22.135Z,100.00
2022-09-06T04:11:48.886Z,100.00
2022-09-06T04:14:15.603Z,100.00
2022-09-06T04:16:42.401Z,100.00
2022-09-06T04:19:09.122Z,100.00
2022-09-06T04:21:35.937Z,100.00
2022-09-06T04:24:03.080Z,100.00
2022-09-06T04:26:29.856Z,100.00
2022-09-06T04:28:56.692Z,100.00
2022-09-06T04:31:23.421Z,100.00
2022-09-06T04:33:50.279Z,100.00
2022-09-06T04:36:17.071Z,100.00
2022-09-06T04:38:44.936Z,100.00
2022-09-06T04:41:13.325Z,100.00
2022-09-06T04:43:40.171Z,100.00
2022-09-06T04:46:11.611Z,100.00
2022-09-06T04:48:38.452Z,100.00
2022-09-06T04:51:05.288Z,100.00
2022-09-06T04:53:32.043Z,100.00
2022-09-06T04:55:58.968Z,100.00
2022-09-06T04:58:25.809Z,100.00
2022-09-06T05:00:52.845Z,100.00
2022-09-06T05:03:19.705Z,100.00
2022-09-06T05:05:46.449Z,100.00
2022-09-06T05:08:13.131Z,100.00
2022-09-06T05:10:39.993Z,100.00
2022-09-06T05:13:06.784Z,100.00
2022-09-06T05:15:33.978Z,100.00
2022-09-06T05:18:05.262Z,100.00
2022-09-06T05:20:32.109Z,100.00
2022-09-06T05:22:58.843Z,100.00
2022-09-06T05:25:25.692Z,100.00
2022-09-06T05:27:52.451Z,100.00
2022-09-06T05:30:19.804Z,100.00
2022-09-06T05:32:46.582Z,100.00
2022-09-06T05:35:13.417Z,100.00
2022-09-06T05:37:40.164Z,100.00
2022-09-06T05:40:07.492Z,100.00
2022-09-06T05:42:34.291Z,100.00
2022-09-06T05:45:01.874Z,100.00
2022-09-06T05:47:28.707Z,100.00
2022-09-06T05:49:55.470Z,100.00
2022-09-06T05:52:22.262Z,100.00
2022-09-06T05:54:49.027Z,100.00
2022-09-06T05:57:15.779Z,100.00
2022-09-06T05:59:42.503Z,100.00
2022-09-06T06:02:09.301Z,100.00
2022-09-06T06:04:36.188Z,100.00
2022-09-06T06:07:03.019Z,100.00
2022-09-06T06:09:29.727Z,100.00
2022-09-06T06:11:57.562Z,100.00
2022-09-06T06:14:24.485Z,100.00
2022-09-06T06:16:51.228Z,100.00
2022-09-06T06:19:18.013Z,100.00
2022-09-06T06:21:44.918Z,100.00
2022-09-06T06:24:11.717Z,100.00
2022-09-06T06:26:38.699Z,100.00
2022-09-06T06:29:08.349Z,100.00
2022-09-06T06:31:36.544Z,100.00
2022-09-06T06:34:04.390Z,100.00
2022-09-06T06:36:33.980Z,100.00
2022-09-06T06:39:02.355Z,100.00
2022-09-06T06:41:31.936Z,100.00
2022-09-06T06:44:01.260Z,100.00
2022-09-06T06:46:34.137Z,100.00
2022-09-06T06:49:00.941Z,100.00
2022-09-06T06:51:30.497Z,100.00
2022-09-06T06:53:57.643Z,100.00
2022-09-06T06:56:30.110Z,100.00
2022-09-06T06:58:59.683Z,100.00
2022-09-06T07:01:28.104Z,100.00
2022-09-06T07:03:55.188Z,100.00
2022-09-06T07:09:09.284Z,100.00
2022-09-06T07:11:37.159Z,100.00
2022-09-06T07:14:03.866Z,100.00
2022-09-06T07:16:30.824Z,100.00
2022-09-06T07:18:57.565Z,100.00
2022-09-06T07:21:42.515Z,100.00
2022-09-06T07:24:09.796Z,100.00
2022-09-06T07:26:38.471Z,100.00
2022-09-06T07:29:06.887Z,100.00
2022-09-06T07:34:22.291Z,100.00
2022-09-06T07:36:52.712Z,100.00
2022-09-06T07:39:19.663Z,100.00
2022-09-06T07:41:46.577Z,100.00
2022-09-06T07:44:13.411Z,100.00
2022-09-06T07:46:40.234Z,99.64
2022-09-06T07:49:07.206Z,97.54
2022-09-06T07:51:34.407Z,96.68
2022-09-06T07:54:26.152Z,92.59
2022-09-06T07:56:48.085Z,94.44
2022-09-06T07:59:15.155Z,92.94
2022-09-06T08:01:42.388Z,90.18
2022-09-06T08:04:14.068Z,89.18
2022-09-06T08:09:30.601Z,85.11
2022-09-06T08:11:57.435Z,84.04
2022-09-06T08:14:24.262Z,84.86
2022-09-06T08:16:50.990Z,84.08
2022-09-06T08:19:18.537Z,84.27
2022-09-06T08:21:45.457Z,83.47
2022-09-06T08:24:12.343Z,82.93
2022-09-06T08:26:40.761Z,82.19
2022-09-06T08:29:08.950Z,80.80
2022-09-06T08:31:38.692Z,81.38
2022-09-06T08:34:05.998Z,82.48
2022-09-06T08:36:33.430Z,81.57
2022-09-06T08:39:01.771Z,81.33
2022-09-06T08:41:51.825Z,81.62
2022-09-06T08:47:09.659Z,79.43
2022-09-06T08:49:42.853Z,78.31
2022-09-06T08:52:54.339Z,78.65
2022-09-06T08:55:31.492Z,78.45
2022-09-06T08:58:11.429Z,77.67
2022-09-06T09:00:38.666Z,82.21
2022-09-06T09:03:17.021Z,80.68
2022-09-06T09:05:47.889Z,79.87
2022-09-06T09:08:31.521Z,78.90
2022-09-06T09:11:02.023Z,81.96
2022-09-06T09:14:13.601Z,82.81
2022-09-06T09:16:40.399Z,78.36
2022-09-06T09:19:07.222Z,78.54
2022-09-06T09:21:36.894Z,80.58
2022-09-06T09:24:09.425Z,77.95
2022-09-06T09:26:55.251Z,75.54
2022-09-06T09:29:27.409Z,76.89
2022-09-06T09:31:56.427Z,73.64
2022-09-06T09:34:37.888Z,74.52
2022-09-06T09:39:59.435Z,72.44
2022-09-06T09:42:35.119Z,73.16
2022-09-06T09:45:02.765Z,70.99
2022-09-06T09:47:31.321Z,72.53
2022-09-06T09:49:58.485Z,73.36
2022-09-06T09:52:31.048Z,74.06
2022-09-06T09:55:01.117Z,74.82
2022-09-06T09:57:30.380Z,71.59
2022-09-06T10:00:01.173Z,70.17
2022-09-06T10:02:35.890Z,68.17
2022-09-06T10:05:10.165Z,67.14
2022-09-06T10:07:43.588Z,66.67
2022-09-06T10:10:15.436Z,66.43
2022-09-06T10:12:42.777Z,65.43
2022-09-06T10:15:12.007Z,64.04
2022-09-06T10:17:44.664Z,63.77
2022-09-06T10:20:12.797Z,63.25
2022-09-06T10:23:04.860Z,62.96
2022-09-06T10:25:38.246Z,62.31
2022-09-06T10:28:12.855Z,61.75
2022-09-06T10:31:11.853Z,59.72
2022-09-06T10:33:53.780Z,60.60
2022-09-06T10:36:28.843Z,58.62
2022-09-06T10:39:03.667Z,58.92
2022-09-06T10:42:03.527Z,59.12
2022-09-06T10:44:51.999Z,58.44
2022-09-06T10:47:18.783Z,58.10
2022-09-06T10:49:49.551Z,57.28
2022-09-06T10:52:25.682Z,56.70
2022-09-06T10:54:53.808Z,56.99
2022-09-06T11:00:13.690Z,55.84
2022-09-06T11:05:58.707Z,54.78
2022-09-06T11:08:47.472Z,54.14
2022-09-06T11:11:24.424Z,53.51
2022-09-06T11:13:51.195Z,53.34
2022-09-06T11:16:31.727Z,52.87
2022-09-06T11:19:10.031Z,53.64
2022-09-06T11:22:05.227Z,51.95
2022-09-06T11:24:59.925Z,52.80
2022-09-06T11:27:34.983Z,53.45
2022-09-06T11:30:03.951Z,53.50
2022-09-06T11:32:34.810Z,52.00
2022-09-06T11:35:07.332Z,51.63
2022-09-06T11:37:39.703Z,51.39
2022-09-06T11:40:28.489Z,50.01
2022-09-06T11:42:55.671Z,49.77
2022-09-06T11:45:50.813Z,48.36
2022-09-06T11:48:23.408Z,48.84
2022-09-06T11:50:59.343Z,48.23
2022-09-06T11:53:29.252Z,47.67
2022-09-06T11:56:04.806Z,46.98
2022-09-06T11:58:41.629Z,46.81
2022-09-06T12:01:16.534Z,46.22
2022-09-06T12:07:03.818Z,45.73
2022-09-06T12:09:33.052Z,45.22
2022-09-06T12:12:00.572Z,44.23
2022-09-06T12:14:40.430Z,44.05
2022-09-06T12:17:11.353Z,44.45
2022-09-06T12:19:49.230Z,42.88
2022-09-06T12:22:28.853Z,41.67
2022-09-06T12:25:17.859Z,42.77
2022-09-06T12:28:05.385Z,46.65
2022-09-06T12:30:44.743Z,45.78
2022-09-06T12:33:25.891Z,45.44
2022-09-06T12:35:56.346Z,43.22
2022-09-06T12:38:25.695Z,42.12
2022-09-06T12:40:56.505Z,42.29
2022-09-06T12:43:23.180Z,44.78
2022-09-06T12:45:51.682Z,43.80
2022-09-06T12:48:35.422Z,44.16
2022-09-06T12:51:04.504Z,45.96
2022-09-06T12:53:31.751Z,45.26
2022-09-06T12:56:10.187Z,44.63
2022-09-06T12:58:38.761Z,45.73
2022-09-06T13:01:26.299Z,43.30
2022-09-06T13:03:57.028Z,42.34
2022-09-06T13:06:27.177Z,44.97
2022-09-06T13:08:55.905Z,43.54
2022-09-06T13:11:30.814Z,44.57
2022-09-06T13:13:57.981Z,42.32
2022-09-06T13:16:38.457Z,42.39
2022-09-06T13:19:38.409Z,41.16
2022-09-06T13:22:07.694Z,40.93
2022-09-06T13:24:34.279Z,39.55
2022-09-06T13:27:01.779Z,41.26
2022-09-06T13:29:32.156Z,41.84
2022-09-06T13:32:00.956Z,41.50
2022-09-06T13:34:28.859Z,41.68
2022-09-06T13:37:07.361Z,41.95
2022-09-06T13:39:44.047Z,42.55
2022-09-06T13:42:30.350Z,44.30
2022-09-06T13:45:01.918Z,44.77
2022-09-06T13:47:29.758Z,43.55
2022-09-06T13:49:56.453Z,41.95
2022-09-06T13:52:23.457Z,42.43
2022-09-06T13:54:50.215Z,42.83
2022-09-06T13:57:22.192Z,43.94
2022-09-06T13:59:50.888Z,43.39
2022-09-06T14:02:19.908Z,44.70
2022-09-06T14:04:46.973Z,43.43
2022-09-06T14:07:13.714Z,42.71
2022-09-06T14:09:40.407Z,42.62
2022-09-06T14:12:07.154Z,43.66
2022-09-06T14:14:34.368Z,42.76
2022-09-06T14:17:01.199Z,42.41
2022-09-06T14:19:28.861Z,42.98
2022-09-06T14:21:55.642Z,41.98
2022-09-06T14:24:22.484Z,42.98
2022-09-06T14:26:49.447Z,43.28
2022-09-06T14:29:16.180Z,43.00
2022-09-06T14:31:42.912Z,42.59
2022-09-06T14:34:09.662Z,43.95
2022-09-06T14:36:36.440Z,45.03
2022-09-06T14:39:03.907Z,44.57
2022-09-06T14:41:30.738Z,47.94
2022-09-06T14:43:58.709Z,47.67
2022-09-06T14:46:26.836Z,47.78
2022-09-06T14:49:01.910Z,48.58
2022-09-06T14:51:29.991Z,49.19
2022-09-06T14:54:00.163Z,49.55
2022-09-06T14:56:27.163Z,48.05
2022-09-06T14:58:57.328Z,47.59
2022-09-06T15:01:26.369Z,48.77
2022-09-06T15:03:58.225Z,48.65
2022-09-06T15:06:26.457Z,47.53
2022-09-06T15:08:57.049Z,47.34
2022-09-06T15:11:35.044Z,45.46
2022-09-06T15:14:04.141Z,47.69
2022-09-06T15:16:31.529Z,47.21
2022-09-06T15:18:58.634Z,47.12
2022-09-06T15:21:25.933Z,46.93
2022-09-06T15:23:53.381Z,48.01
2022-09-06T15:26:20.311Z,48.60
2022-09-06T15:28:47.360Z,49.45
2022-09-06T15:31:15.341Z,50.44
2022-09-06T15:33:42.287Z,50.70
2022-09-06T15:36:10.230Z,50.52
2022-09-06T15:38:41.168Z,49.81
2022-09-06T15:41:13.235Z,49.79
2022-09-06T15:43:42.371Z,50.31
2022-09-06T15:46:09.715Z,50.91
2022-09-06T15:48:41.859Z,51.19
2022-09-06T15:51:09.540Z,51.10
2022-09-06T15:53:36.447Z,50.07
2022-09-06T15:56:04.191Z,50.78
2022-09-06T15:58:31.614Z,51.23
2022-09-06T16:01:10.275Z,51.56
2022-09-06T16:03:45.907Z,51.95
2022-09-06T16:06:27.527Z,52.37
2022-09-06T16:09:14.831Z,53.25
2022-09-06T16:11:41.996Z,53.59
2022-09-06T16:14:11.815Z,53.79
2022-09-06T16:16:39.974Z,54.57
2022-09-06T16:19:06.857Z,55.06
2022-09-06T16:21:34.819Z,55.54
2022-09-06T16:24:04.314Z,56.67
2022-09-06T16:26:35.128Z,56.97
2022-09-06T16:29:03.309Z,58.01
2022-09-06T16:31:30.078Z,58.91
2022-09-06T16:33:58.039Z,59.85
2022-09-06T16:36:26.072Z,61.12
2022-09-06T16:38:53.344Z,61.67
2022-09-06T16:41:39.518Z,62.28
2022-09-06T16:44:08.136Z,64.03
2022-09-06T16:46:34.847Z,63.44
2022-09-06T16:49:03.133Z,63.47
2022-09-06T16:51:31.503Z,65.71
2022-09-06T16:53:59.563Z,65.73
2022-09-06T16:56:28.406Z,67.09
2022-09-06T16:58:57.004Z,68.68
2022-09-06T17:01:24.755Z,68.61
2022-09-06T17:03:52.011Z,69.52
2022-09-06T17:06:19.308Z,69.98
2022-09-06T17:08:46.282Z,70.01
2022-09-06T17:11:18.520Z,71.91
2022-09-06T17:13:47.331Z,73.16
2022-09-06T17:16:33.362Z,73.52
2022-09-06T17:19:01.353Z,75.13
2022-09-06T17:21:29.135Z,75.54
2022-09-06T17:23:58.774Z,77.63
2022-09-06T17:26:25.427Z,79.03
2022-09-06T17:28:52.362Z,78.63
2022-09-06T17:31:25.012Z,80.61
2022-09-06T17:33:53.294Z,81.52
2022-09-06T17:36:23.771Z,82.04
2022-09-06T17:38:53.411Z,83.49
2022-09-06T17:41:29.690Z,84.97
2022-09-06T17:43:58.678Z,86.05
2022-09-06T17:46:28.872Z,87.23
2022-09-06T17:48:56.784Z,89.54
2022-09-06T17:51:24.559Z,90.42
2022-09-06T17:53:52.332Z,92.06
2022-09-06T17:56:20.055Z,94.03
2022-09-06T17:58:59.370Z,94.77
2022-09-06T18:01:29.643Z,98.18
2022-09-06T18:03:57.192Z,100.00
2022-09-06T18:06:25.666Z,100.00
2022-09-06T18:08:54.339Z,100.00
2022-09-06T18:11:29.029Z,100.00
2022-09-06T18:14:01.065Z,100.00
2022-09-06T18:16:28.962Z,100.00
2022-09-06T18:18:58.331Z,100.00
2022-09-06T18:21:27.108Z,100.00
2022-09-06T18:23:57.360Z,100.00
2022-09-06T18:26:24.719Z,100.00
2022-09-06T18:28:52.997Z,100.00
2022-09-06T18:31:22.203Z,100.00
2022-09-06T18:33:49.125Z,100.00
2022-09-06T18:36:16.351Z,100.00
2022-09-06T18:38:43.562Z,100.00
2022-09-06T18:41:31.473Z,100.00
2022-09-06T18:44:02.580Z,100.00
2022-09-06T18:46:30.885Z,100.00
2022-09-06T18:48:58.201Z,100.00
2022-09-06T18:51:25.173Z,100.00
2022-09-06T18:53:52.891Z,100.00
2022-09-06T18:56:20.069Z,100.00
2022-09-06T18:58:47.211Z,100.00
2022-09-06T19:01:17.870Z,100.00
2022-09-06T19:03:44.697Z,100.00
2022-09-06T19:06:13.721Z,100.00
2022-09-06T19:08:41.100Z,100.00
2022-09-06T19:11:12.740Z,100.00
2022-09-06T19:13:41.797Z,100.00
2022-09-06T19:16:10.008Z,100.00
2022-09-06T19:18:37.631Z,100.00
2022-09-06T19:21:09.777Z,100.00
2022-09-06T19:23:39.005Z,100.00
2022-09-06T19:26:08.696Z,100.00
2022-09-06T19:28:37.267Z,100.00
2022-09-06T19:31:07.861Z,100.00
2022-09-06T19:33:36.337Z,100.00
2022-09-06T19:36:11.513Z,100.00
2022-09-06T19:39:01.503Z,100.00
2022-09-06T19:41:27.003Z,100.00
2022-09-06T19:43:55.546Z,100.00
2022-09-06T19:46:23.344Z,100.00
2022-09-06T19:48:51.736Z,100.00
2022-09-06T19:51:19.700Z,100.00
2022-09-06T19:53:53.247Z,100.00
2022-09-06T19:56:22.900Z,100.00
2022-09-06T19:58:55.277Z,100.00
2022-09-06T20:01:22.620Z,100.00
2022-09-06T20:03:49.499Z,100.00
2022-09-06T20:06:16.373Z,100.00
2022-09-06T20:08:43.149Z,100.00
2022-09-06T20:11:12.713Z,100.00
2022-09-06T20:13:39.925Z,100.00
2022-09-06T20:16:08.324Z,100.00
2022-09-06T20:18:35.655Z,100.00
2022-09-06T20:21:02.954Z,100.00
2022-09-06T20:23:30.827Z,100.00
2022-09-06T20:26:04.575Z,100.00
2022-09-06T20:28:31.923Z,100.00
2022-09-06T20:31:01.271Z,100.00
2022-09-06T20:33:28.991Z,100.00
2022-09-06T20:36:02.811Z,100.00
2022-09-06T20:38:36.231Z,100.00
2022-09-06T20:41:10.959Z,100.00
2022-09-06T20:43:39.024Z,100.00
2022-09-06T20:46:14.749Z,100.00
2022-09-06T20:48:44.994Z,100.00
2022-09-06T20:51:20.674Z,100.00
2022-09-06T20:53:55.299Z,100.00
2022-09-06T20:56:27.395Z,100.00
2022-09-06T20:59:00.846Z,100.00
2022-09-06T21:01:29.970Z,100.00
2022-09-06T21:03:59.403Z,100.00
2022-09-06T21:06:28.378Z,100.00
2022-09-06T21:08:56.347Z,100.00
2022-09-06T21:11:23.743Z,100.00
2022-09-06T21:13:52.000Z,100.00
2022-09-06T21:16:24.226Z,100.00
2022-09-06T21:18:52.512Z,100.00
2022-09-06T21:21:19.181Z,100.00
2022-09-06T21:23:46.019Z,100.00
2022-09-06T21:26:13.165Z,100.00
2022-09-06T21:28:40.749Z,100.00
2022-09-06T21:31:19.485Z,100.00
2022-09-06T21:33:47.627Z,100.00
2022-09-06T21:36:16.754Z,100.00
2022-09-06T21:38:48.255Z,100.00
2022-09-06T21:41:17.091Z,100.00
2022-09-06T21:43:44.912Z,100.00
2022-09-06T21:46:13.885Z,100.00
2022-09-06T21:48:42.696Z,100.00
2022-09-06T21:51:15.371Z,100.00
2022-09-06T21:53:44.254Z,100.00
2022-09-06T21:56:11.430Z,100.00
2022-09-06T21:58:38.460Z,100.00
2022-09-06T22:01:06.058Z,100.00
2022-09-06T22:03:36.016Z,100.00
2022-09-06T22:06:14.158Z,100.00
2022-09-06T22:08:44.092Z,100.00
2022-09-06T22:11:14.462Z,100.00
2022-09-06T22:13:42.056Z,100.00
2022-09-06T22:16:09.879Z,100.00
2022-09-06T22:18:37.072Z,100.00
2022-09-06T22:21:06.722Z,100.00
2022-09-06T22:23:33.715Z,100.00
2022-09-06T22:26:11.547Z,100.00
2022-09-06T22:28:38.980Z,100.00
2022-09-06T22:31:06.863Z,100.00
2022-09-06T22:33:33.636Z,100.00
2022-09-06T22:36:00.786Z,100.00
2022-09-06T22:38:28.533Z,100.00
2022-09-06T22:40:55.444Z,100.00
2022-09-06T22:43:22.171Z,100.00
2022-09-06T22:45:52.004Z,100.00
2022-09-06T22:48:19.087Z,100.00
2022-09-06T22:50:46.310Z,100.00
2022-09-06T22:53:12.991Z,100.00
2022-09-06T22:55:39.760Z,100.00
2022-09-06T22:58:06.673Z,100.00
2022-09-06T23:00:36.211Z,100.00
2022-09-06T23:03:03.157Z,100.00
2022-09-06T23:05:31.501Z,100.00
2022-09-06T23:08:00.297Z,100.00
2022-09-06T23:10:27.623Z,100.00
2022-09-06T23:12:54.858Z,100.00
2022-09-06T23:15:22.026Z,100.00
2022-09-06T23:17:48.958Z,100.00
2022-09-06T23:20:15.810Z,100.00
2022-09-06T23:22:42.609Z,100.00
2022-09-06T23:25:09.538Z,100.00
2022-09-06T23:27:36.809Z,100.00
2022-09-06T23:30:04.407Z,100.00
2022-09-06T23:32:34.206Z,100.00
2022-09-06T23:35:00.951Z,100.00
2022-09-06T23:37:27.641Z,100.00
2022-09-06T23:39:54.402Z,100.00
2022-09-06T23:42:22.992Z,100.00
2022-09-06T23:44:54.464Z,100.00
2022-09-06T23:47:21.311Z,100.00
2022-09-06T23:49:50.688Z,100.00
2022-09-06T23:52:17.979Z,100.00
2022-09-06T23:54:44.878Z,100.00
2022-09-06T23:57:11.669Z,100.00
2022-09-06T23:59:38.395Z,100.00
